sensor_id;sensor_type;location;lat;lon;timestamp;temperature;humidity
71098;SHT35;58754;47.622;-2.986;2023-05-01T00:00:07;21.69;69.31
71098;SHT35;58754;47.622;-2.986;2023-05-01T00:02:33;21.70;69.38
71098;SHT35;58754;47.622;-2.986;2023-05-01T00:05:00;21.70;69.59
71098;SHT35;58754;47.622;-2.986;2023-05-01T00:07:26;21.72;69.65
71098;SHT35;58754;47.622;-2.986;2023-05-01T00:09:58;21.75;69.70
71098;SHT35;58754;47.622;-2.986;2023-05-01T00:12:24;21.76;69.76
71098;SHT35;58754;47.622;-2.986;2023-05-01T00:14:50;21.75;69.64
71098;SHT35;58754;47.622;-2.986;2023-05-01T00:17:16;21.73;69.74
71098;SHT35;58754;47.622;-2.986;2023-05-01T00:19:42;21.73;69.79
71098;SHT35;58754;47.622;-2.986;2023-05-01T00:22:07;21.73;69.87
71098;SHT35;58754;47.622;-2.986;2023-05-01T00:24:33;21.75;69.87
71098;SHT35;58754;47.622;-2.986;2023-05-01T00:26:59;21.73;69.94
71098;SHT35;58754;47.622;-2.986;2023-05-01T00:29:24;21.76;69.97
71098;SHT35;58754;47.622;-2.986;2023-05-01T00:31:50;21.77;70.00
71098;SHT35;58754;47.622;-2.986;2023-05-01T00:34:16;21.75;69.93
71098;SHT35;58754;47.622;-2.986;2023-05-01T00:36:41;21.73;70.11
71098;SHT35;58754;47.622;-2.986;2023-05-01T00:39:07;21.75;69.99
71098;SHT35;58754;47.622;-2.986;2023-05-01T00:41:36;21.72;69.98
71098;SHT35;58754;47.622;-2.986;2023-05-01T00:44:02;21.76;70.06
71098;SHT35;58754;47.622;-2.986;2023-05-01T00:46:29;21.76;70.17
71098;SHT35;58754;47.622;-2.986;2023-05-01T00:48:56;21.73;70.24
71098;SHT35;58754;47.622;-2.986;2023-05-01T00:51:23;21.76;70.21
71098;SHT35;58754;47.622;-2.986;2023-05-01T00:53:49;21.76;70.25
71098;SHT35;58754;47.622;-2.986;2023-05-01T00:56:16;21.75;70.27
71098;SHT35;58754;47.622;-2.986;2023-05-01T00:58:44;21.76;70.31
71098;SHT35;58754;47.622;-2.986;2023-05-01T01:01:11;21.75;70.32
71098;SHT35;58754;47.622;-2.986;2023-05-01T01:03:37;21.76;70.36
71098;SHT35;58754;47.622;-2.986;2023-05-01T01:06:20;21.79;70.39
71098;SHT35;58754;47.622;-2.986;2023-05-01T01:09:09;21.77;70.44
71098;SHT35;58754;47.622;-2.986;2023-05-01T01:12:42;21.77;70.50
71098;SHT35;58754;47.622;-2.986;2023-05-01T01:14:47;21.77;70.50
71098;SHT35;58754;47.622;-2.986;2023-05-01T01:17:29;21.77;70.52
71098;SHT35;58754;47.622;-2.986;2023-05-01T01:26:03;21.80;70.69
71098;SHT35;58754;47.622;-2.986;2023-05-01T01:29:02;21.80;70.77
71098;SHT35;58754;47.622;-2.986;2023-05-01T01:34:06;21.82;70.72
71098;SHT35;58754;47.622;-2.986;2023-05-01T01:36:41;21.82;70.70
71098;SHT35;58754;47.622;-2.986;2023-05-01T01:39:28;21.79;70.80
71098;SHT35;58754;47.622;-2.986;2023-05-01T01:41:57;21.80;70.94
71098;SHT35;58754;47.622;-2.986;2023-05-01T01:44:36;21.82;70.65
71098;SHT35;58754;47.622;-2.986;2023-05-01T01:47:06;21.82;70.73
71098;SHT35;58754;47.622;-2.986;2023-05-01T01:49:36;21.80;70.65
71098;SHT35;58754;47.622;-2.986;2023-05-01T01:52:05;21.80;70.78
71098;SHT35;58754;47.622;-2.986;2023-05-01T01:54:36;21.80;70.77
71098;SHT35;58754;47.622;-2.986;2023-05-01T01:57:03;21.82;70.80
71098;SHT35;58754;47.622;-2.986;2023-05-01T01:59:33;21.80;70.95
71098;SHT35;58754;47.622;-2.986;2023-05-01T02:02:00;21.82;70.74
71098;SHT35;58754;47.622;-2.986;2023-05-01T02:04:28;21.82;70.76
71098;SHT35;58754;47.622;-2.986;2023-05-01T02:06:58;21.80;70.93
71098;SHT35;58754;47.622;-2.986;2023-05-01T02:09:27;21.82;70.97
71098;SHT35;58754;47.622;-2.986;2023-05-01T02:11:54;21.83;70.88
71098;SHT35;58754;47.622;-2.986;2023-05-01T02:14:22;21.82;70.98
71098;SHT35;58754;47.622;-2.986;2023-05-01T02:16:50;21.82;70.92
71098;SHT35;58754;47.622;-2.986;2023-05-01T02:19:17;21.82;70.95
71098;SHT35;58754;47.622;-2.986;2023-05-01T02:21:44;21.79;70.95
71098;SHT35;58754;47.622;-2.986;2023-05-01T02:24:11;21.82;71.01
71098;SHT35;58754;47.622;-2.986;2023-05-01T02:26:42;21.80;70.94
71098;SHT35;58754;47.622;-2.986;2023-05-01T02:29:09;21.80;71.15
71098;SHT35;58754;47.622;-2.986;2023-05-01T02:31:35;21.82;71.15
71098;SHT35;58754;47.622;-2.986;2023-05-01T02:34:01;21.82;71.21
71098;SHT35;58754;47.622;-2.986;2023-05-01T02:36:26;21.80;71.10
71098;SHT35;58754;47.622;-2.986;2023-05-01T02:38:53;21.79;71.06
71098;SHT35;58754;47.622;-2.986;2023-05-01T02:41:24;21.80;71.09
71098;SHT35;58754;47.622;-2.986;2023-05-01T02:43:55;21.79;71.23
71098;SHT35;58754;47.622;-2.986;2023-05-01T02:46:24;21.83;71.09
71098;SHT35;58754;47.622;-2.986;2023-05-01T02:48:53;21.82;71.28
71098;SHT35;58754;47.622;-2.986;2023-05-01T02:51:20;21.80;71.41
71098;SHT35;58754;47.622;-2.986;2023-05-01T02:53:47;21.80;71.39
71098;SHT35;58754;47.622;-2.986;2023-05-01T02:56:14;21.82;71.39
71098;SHT35;58754;47.622;-2.986;2023-05-01T02:58:41;21.80;71.40
71098;SHT35;58754;47.622;-2.986;2023-05-01T03:01:06;21.80;71.43
71098;SHT35;58754;47.622;-2.986;2023-05-01T03:03:32;21.79;71.32
71098;SHT35;58754;47.622;-2.986;2023-05-01T03:05:58;21.79;71.40
71098;SHT35;58754;47.622;-2.986;2023-05-01T03:08:24;21.82;71.46
71098;SHT35;58754;47.622;-2.986;2023-05-01T03:10:50;21.80;71.47
71098;SHT35;58754;47.622;-2.986;2023-05-01T03:13:15;21.79;71.48
71098;SHT35;58754;47.622;-2.986;2023-05-01T03:15:43;21.83;71.37
71098;SHT35;58754;47.622;-2.986;2023-05-01T03:18:08;21.77;71.41
71098;SHT35;58754;47.622;-2.986;2023-05-01T03:20:34;21.80;71.44
71098;SHT35;58754;47.622;-2.986;2023-05-01T03:23:00;21.82;71.43
71098;SHT35;58754;47.622;-2.986;2023-05-01T03:25:26;21.80;71.35
71098;SHT35;58754;47.622;-2.986;2023-05-01T03:27:51;21.79;71.52
71098;SHT35;58754;47.622;-2.986;2023-05-01T03:30:17;21.80;71.63
71098;SHT35;58754;47.622;-2.986;2023-05-01T03:32:44;21.80;71.68
71098;SHT35;58754;47.622;-2.986;2023-05-01T03:35:09;21.79;71.70
71098;SHT35;58754;47.622;-2.986;2023-05-01T03:37:35;21.79;71.68
71098;SHT35;58754;47.622;-2.986;2023-05-01T03:40:01;21.77;71.62
71098;SHT35;58754;47.622;-2.986;2023-05-01T03:42:27;21.80;71.69
71098;SHT35;58754;47.622;-2.986;2023-05-01T03:44:52;21.80;71.77
71098;SHT35;58754;47.622;-2.986;2023-05-01T03:47:18;21.77;71.78
71098;SHT35;58754;47.622;-2.986;2023-05-01T03:49:44;21.79;71.87
71098;SHT35;58754;47.622;-2.986;2023-05-01T03:52:10;21.79;71.90
71098;SHT35;58754;47.622;-2.986;2023-05-01T03:54:37;21.80;71.93
71098;SHT35;58754;47.622;-2.986;2023-05-01T03:57:03;21.80;71.94
71098;SHT35;58754;47.622;-2.986;2023-05-01T03:59:29;21.79;71.92
71098;SHT35;58754;47.622;-2.986;2023-05-01T04:01:55;21.80;71.92
71098;SHT35;58754;47.622;-2.986;2023-05-01T04:04:20;21.77;71.86
71098;SHT35;58754;47.622;-2.986;2023-05-01T04:06:46;21.77;71.92
71098;SHT35;58754;47.622;-2.986;2023-05-01T04:09:15;21.80;71.92
71098;SHT35;58754;47.622;-2.986;2023-05-01T04:11:40;21.80;71.92
71098;SHT35;58754;47.622;-2.986;2023-05-01T04:14:06;21.79;71.97
71098;SHT35;58754;47.622;-2.986;2023-05-01T04:16:32;21.79;72.01
71098;SHT35;58754;47.622;-2.986;2023-05-01T04:18:58;21.79;72.09
71098;SHT35;58754;47.622;-2.986;2023-05-01T04:21:24;21.77;72.12
71098;SHT35;58754;47.622;-2.986;2023-05-01T04:23:49;21.79;72.05
71098;SHT35;58754;47.622;-2.986;2023-05-01T04:26:15;21.77;72.06
71098;SHT35;58754;47.622;-2.986;2023-05-01T04:28:41;21.77;72.14
71098;SHT35;58754;47.622;-2.986;2023-05-01T04:31:07;21.79;72.09
71098;SHT35;58754;47.622;-2.986;2023-05-01T04:33:32;21.79;72.08
71098;SHT35;58754;47.622;-2.986;2023-05-01T04:35:58;21.80;72.08
71098;SHT35;58754;47.622;-2.986;2023-05-01T04:38:24;21.80;72.09
71098;SHT35;58754;47.622;-2.986;2023-05-01T04:40:50;21.80;72.05
71098;SHT35;58754;47.622;-2.986;2023-05-01T04:43:16;21.79;72.10
71098;SHT35;58754;47.622;-2.986;2023-05-01T04:45:42;21.79;72.07
71098;SHT35;58754;47.622;-2.986;2023-05-01T04:48:08;21.80;72.07
71098;SHT35;58754;47.622;-2.986;2023-05-01T04:50:34;21.77;72.13
71098;SHT35;58754;47.622;-2.986;2023-05-01T04:52:59;21.80;72.20
71098;SHT35;58754;47.622;-2.986;2023-05-01T04:55:26;21.80;72.19
71098;SHT35;58754;47.622;-2.986;2023-05-01T04:57:51;21.80;72.18
71098;SHT35;58754;47.622;-2.986;2023-05-01T05:00:17;21.77;72.06
71098;SHT35;58754;47.622;-2.986;2023-05-01T05:02:44;21.77;72.02
71098;SHT35;58754;47.622;-2.986;2023-05-01T05:05:10;21.80;71.97
71098;SHT35;58754;47.622;-2.986;2023-05-01T05:07:37;21.79;71.90
71098;SHT35;58754;47.622;-2.986;2023-05-01T05:10:02;21.79;71.79
71098;SHT35;58754;47.622;-2.986;2023-05-01T05:12:28;21.77;71.79
71098;SHT35;58754;47.622;-2.986;2023-05-01T05:14:54;21.80;71.71
71098;SHT35;58754;47.622;-2.986;2023-05-01T05:17:20;21.79;71.65
71098;SHT35;58754;47.622;-2.986;2023-05-01T05:19:45;21.77;71.63
71098;SHT35;58754;47.622;-2.986;2023-05-01T05:22:11;21.77;71.53
71098;SHT35;58754;47.622;-2.986;2023-05-01T05:24:37;21.77;71.51
71098;SHT35;58754;47.622;-2.986;2023-05-01T05:27:03;21.76;71.45
71098;SHT35;58754;47.622;-2.986;2023-05-01T05:29:30;21.73;71.42
71098;SHT35;58754;47.622;-2.986;2023-05-01T05:31:57;21.73;71.36
71098;SHT35;58754;47.622;-2.986;2023-05-01T05:34:24;21.70;71.32
71098;SHT35;58754;47.622;-2.986;2023-05-01T05:36:50;21.70;71.27
71098;SHT35;58754;47.622;-2.986;2023-05-01T05:39:15;21.70;71.22
71098;SHT35;58754;47.622;-2.986;2023-05-01T05:41:41;21.72;71.27
71098;SHT35;58754;47.622;-2.986;2023-05-01T05:44:07;21.69;71.16
71098;SHT35;58754;47.622;-2.986;2023-05-01T05:46:33;21.67;71.08
71098;SHT35;58754;47.622;-2.986;2023-05-01T05:48:58;21.66;70.99
71098;SHT35;58754;47.622;-2.986;2023-05-01T05:51:24;21.66;71.01
71098;SHT35;58754;47.622;-2.986;2023-05-01T05:53:50;21.63;70.96
71098;SHT35;58754;47.622;-2.986;2023-05-01T05:56:16;21.63;70.97
71098;SHT35;58754;47.622;-2.986;2023-05-01T05:58:42;21.63;70.99
71098;SHT35;58754;47.622;-2.986;2023-05-01T06:01:07;21.63;70.98
71098;SHT35;58754;47.622;-2.986;2023-05-01T06:03:34;21.63;70.87
71098;SHT35;58754;47.622;-2.986;2023-05-01T06:06:00;21.60;70.89
71098;SHT35;58754;47.622;-2.986;2023-05-01T06:08:26;21.60;70.86
71098;SHT35;58754;47.622;-2.986;2023-05-01T06:10:52;21.62;70.80
71098;SHT35;58754;47.622;-2.986;2023-05-01T06:13:17;21.59;70.79
71098;SHT35;58754;47.622;-2.986;2023-05-01T06:15:43;21.60;70.77
71098;SHT35;58754;47.622;-2.986;2023-05-01T06:18:10;21.60;70.73
71098;SHT35;58754;47.622;-2.986;2023-05-01T06:20:37;21.60;70.70
71098;SHT35;58754;47.622;-2.986;2023-05-01T06:23:03;21.60;70.73
71098;SHT35;58754;47.622;-2.986;2023-05-01T06:25:29;21.59;70.73
71098;SHT35;58754;47.622;-2.986;2023-05-01T06:27:55;21.56;70.66
71098;SHT35;58754;47.622;-2.986;2023-05-01T06:30:21;21.56;70.59
71098;SHT35;58754;47.622;-2.986;2023-05-01T06:32:46;21.58;70.50
71098;SHT35;58754;47.622;-2.986;2023-05-01T06:35:13;21.56;70.37
71098;SHT35;58754;47.622;-2.986;2023-05-01T06:37:38;21.56;70.23
71098;SHT35;58754;47.622;-2.986;2023-05-01T06:40:06;21.58;70.10
71098;SHT35;58754;47.622;-2.986;2023-05-01T06:42:32;21.55;70.00
71098;SHT35;58754;47.622;-2.986;2023-05-01T06:44:57;21.53;69.92
71098;SHT35;58754;47.622;-2.986;2023-05-01T06:47:23;21.56;69.79
71098;SHT35;58754;47.622;-2.986;2023-05-01T06:49:48;21.55;69.72
71098;SHT35;58754;47.622;-2.986;2023-05-01T06:52:14;21.53;69.68
71098;SHT35;58754;47.622;-2.986;2023-05-01T06:54:40;21.53;69.65
71098;SHT35;58754;47.622;-2.986;2023-05-01T06:57:06;21.52;69.63
71098;SHT35;58754;47.622;-2.986;2023-05-01T06:59:31;21.50;69.46
71098;SHT35;58754;47.622;-2.986;2023-05-01T07:01:57;21.49;69.44
71098;SHT35;58754;47.622;-2.986;2023-05-01T07:04:23;21.50;69.34
71098;SHT35;58754;47.622;-2.986;2023-05-01T07:06:48;21.49;69.26
71098;SHT35;58754;47.622;-2.986;2023-05-01T07:09:14;21.48;69.19
71098;SHT35;58754;47.622;-2.986;2023-05-01T07:11:40;21.45;69.00
71098;SHT35;58754;47.622;-2.986;2023-05-01T07:14:07;21.48;69.00
71098;SHT35;58754;47.622;-2.986;2023-05-01T07:16:33;21.46;68.74
71098;SHT35;58754;47.622;-2.986;2023-05-01T07:18:59;21.49;68.65
71098;SHT35;58754;47.622;-2.986;2023-05-01T07:21:24;21.48;68.48
71098;SHT35;58754;47.622;-2.986;2023-05-01T07:23:50;21.49;68.43
71098;SHT35;58754;47.622;-2.986;2023-05-01T07:26:16;21.48;68.22
71098;SHT35;58754;47.622;-2.986;2023-05-01T07:28:42;21.49;68.30
71098;SHT35;58754;47.622;-2.986;2023-05-01T07:31:08;21.45;68.21
71098;SHT35;58754;47.622;-2.986;2023-05-01T07:33:34;21.45;68.18
71098;SHT35;58754;47.622;-2.986;2023-05-01T07:36:00;21.45;68.13
71098;SHT35;58754;47.622;-2.986;2023-05-01T07:38:26;21.45;68.01
71098;SHT35;58754;47.622;-2.986;2023-05-01T07:40:52;21.43;67.95
71098;SHT35;58754;47.622;-2.986;2023-05-01T07:43:18;21.43;67.97
71098;SHT35;58754;47.622;-2.986;2023-05-01T07:45:54;21.43;67.88
71098;SHT35;58754;47.622;-2.986;2023-05-01T07:48:20;21.38;68.10
71098;SHT35;58754;47.622;-2.986;2023-05-01T07:50:46;21.43;68.15
71098;SHT35;58754;47.622;-2.986;2023-05-01T07:53:12;21.45;68.24
71098;SHT35;58754;47.622;-2.986;2023-05-01T07:55:37;21.48;68.55
71098;SHT35;58754;47.622;-2.986;2023-05-01T07:58:03;21.46;68.56
71098;SHT35;58754;47.622;-2.986;2023-05-01T08:00:29;21.48;68.64
71098;SHT35;58754;47.622;-2.986;2023-05-01T08:02:54;21.50;68.59
71098;SHT35;58754;47.622;-2.986;2023-05-01T08:05:20;21.55;68.67
71098;SHT35;58754;47.622;-2.986;2023-05-01T08:07:46;21.56;68.73
71098;SHT35;58754;47.622;-2.986;2023-05-01T08:10:12;21.58;68.82
71098;SHT35;58754;47.622;-2.986;2023-05-01T08:12:38;21.58;69.11
71098;SHT35;58754;47.622;-2.986;2023-05-01T08:15:04;21.55;69.14
71098;SHT35;58754;47.622;-2.986;2023-05-01T08:17:29;21.56;69.10
71098;SHT35;58754;47.622;-2.986;2023-05-01T08:19:55;21.56;69.20
71098;SHT35;58754;47.622;-2.986;2023-05-01T08:22:22;21.55;69.14
71098;SHT35;58754;47.622;-2.986;2023-05-01T08:24:49;21.55;69.34
71098;SHT35;58754;47.622;-2.986;2023-05-01T08:27:15;21.56;69.33
71098;SHT35;58754;47.622;-2.986;2023-05-01T08:29:40;21.55;69.27
71098;SHT35;58754;47.622;-2.986;2023-05-01T08:32:06;21.56;69.27
71098;SHT35;58754;47.622;-2.986;2023-05-01T08:34:32;21.53;69.48
71098;SHT35;58754;47.622;-2.986;2023-05-01T08:36:58;21.52;69.18
71098;SHT35;58754;47.622;-2.986;2023-05-01T08:39:24;21.53;68.86
71098;SHT35;58754;47.622;-2.986;2023-05-01T08:41:50;21.52;69.04
71098;SHT35;58754;47.622;-2.986;2023-05-01T08:44:18;21.50;68.93
71098;SHT35;58754;47.622;-2.986;2023-05-01T08:46:52;21.49;68.76
71098;SHT35;58754;47.622;-2.986;2023-05-01T08:49:23;21.48;68.63
71098;SHT35;58754;47.622;-2.986;2023-05-01T08:51:50;21.46;68.56
71098;SHT35;58754;47.622;-2.986;2023-05-01T08:54:19;21.43;66.83
71098;SHT35;58754;47.622;-2.986;2023-05-01T08:56:46;21.42;66.87
71098;SHT35;58754;47.622;-2.986;2023-05-01T08:59:13;21.41;67.23
71098;SHT35;58754;47.622;-2.986;2023-05-01T09:01:46;21.39;67.19
71098;SHT35;58754;47.622;-2.986;2023-05-01T09:04:13;21.42;67.35
71098;SHT35;58754;47.622;-2.986;2023-05-01T09:06:40;21.42;67.17
71098;SHT35;58754;47.622;-2.986;2023-05-01T09:09:09;21.42;67.36
71098;SHT35;58754;47.622;-2.986;2023-05-01T09:11:35;21.41;67.09
71098;SHT35;58754;47.622;-2.986;2023-05-01T09:14:02;21.38;67.20
71098;SHT35;58754;47.622;-2.986;2023-05-01T09:16:32;21.38;67.19
71098;SHT35;58754;47.622;-2.986;2023-05-01T09:18:59;21.38;67.08
71098;SHT35;58754;47.622;-2.986;2023-05-01T09:21:26;21.38;67.09
71098;SHT35;58754;47.622;-2.986;2023-05-01T09:23:53;21.37;67.01
71098;SHT35;58754;47.622;-2.986;2023-05-01T09:26:19;21.35;67.02
71098;SHT35;58754;47.622;-2.986;2023-05-01T09:28:47;21.35;67.13
71098;SHT35;58754;47.622;-2.986;2023-05-01T09:31:27;21.35;67.24
71098;SHT35;58754;47.622;-2.986;2023-05-01T09:33:56;21.37;67.31
71098;SHT35;58754;47.622;-2.986;2023-05-01T09:36:25;21.35;67.00
71098;SHT35;58754;47.622;-2.986;2023-05-01T09:38:51;21.35;66.93
71098;SHT35;58754;47.622;-2.986;2023-05-01T09:41:19;21.34;66.96
71098;SHT35;58754;47.622;-2.986;2023-05-01T09:43:56;21.32;66.91
71098;SHT35;58754;47.622;-2.986;2023-05-01T09:46:23;21.32;66.93
71098;SHT35;58754;47.622;-2.986;2023-05-01T09:48:57;21.35;67.06
71098;SHT35;58754;47.622;-2.986;2023-05-01T09:51:28;21.35;67.05
71098;SHT35;58754;47.622;-2.986;2023-05-01T09:53:59;21.37;66.91
71098;SHT35;58754;47.622;-2.986;2023-05-01T09:56:26;21.37;66.99
71098;SHT35;58754;47.622;-2.986;2023-05-01T09:58:53;21.35;66.96
71098;SHT35;58754;47.622;-2.986;2023-05-01T10:01:40;21.37;67.02
71098;SHT35;58754;47.622;-2.986;2023-05-01T10:04:06;21.35;66.99
71098;SHT35;58754;47.622;-2.986;2023-05-01T10:06:34;21.39;67.05
71098;SHT35;58754;47.622;-2.986;2023-05-01T10:09:02;21.37;66.90
71098;SHT35;58754;47.622;-2.986;2023-05-01T10:11:28;21.38;66.88
71098;SHT35;58754;47.622;-2.986;2023-05-01T10:14:20;21.42;66.80
71098;SHT35;58754;47.622;-2.986;2023-05-01T10:16:48;21.42;66.88
71098;SHT35;58754;47.622;-2.986;2023-05-01T10:19:16;21.43;66.96
71098;SHT35;58754;47.622;-2.986;2023-05-01T10:21:42;21.42;66.99
71098;SHT35;58754;47.622;-2.986;2023-05-01T10:24:08;21.43;67.02
71098;SHT35;58754;47.622;-2.986;2023-05-01T10:26:35;21.42;67.06
71098;SHT35;58754;47.622;-2.986;2023-05-01T10:29:02;21.43;67.08
71098;SHT35;58754;47.622;-2.986;2023-05-01T10:31:28;21.43;67.19
71098;SHT35;58754;47.622;-2.986;2023-05-01T10:33:57;21.45;67.19
71098;SHT35;58754;47.622;-2.986;2023-05-01T10:36:35;21.45;67.23
71098;SHT35;58754;47.622;-2.986;2023-05-01T10:39:02;21.45;67.22
71098;SHT35;58754;47.622;-2.986;2023-05-01T10:42:03;21.45;67.18
71098;SHT35;58754;47.622;-2.986;2023-05-01T10:44:29;21.45;67.20
71098;SHT35;58754;47.622;-2.986;2023-05-01T10:46:55;21.45;67.13
71098;SHT35;58754;47.622;-2.986;2023-05-01T10:49:21;21.46;67.03
71098;SHT35;58754;47.622;-2.986;2023-05-01T10:52:07;21.46;66.95
71098;SHT35;58754;47.622;-2.986;2023-05-01T10:54:32;21.43;66.86
71098;SHT35;58754;47.622;-2.986;2023-05-01T10:57:00;21.45;66.87
71098;SHT35;58754;47.622;-2.986;2023-05-01T10:59:34;21.42;66.84
71098;SHT35;58754;47.622;-2.986;2023-05-01T11:02:22;21.43;66.88
71098;SHT35;58754;47.622;-2.986;2023-05-01T11:04:49;21.45;66.84
71098;SHT35;58754;47.622;-2.986;2023-05-01T11:07:19;21.46;66.79
71098;SHT35;58754;47.622;-2.986;2023-05-01T11:09:46;21.46;66.61
71098;SHT35;58754;47.622;-2.986;2023-05-01T11:20:09;21.49;67.02
71098;SHT35;58754;47.622;-2.986;2023-05-01T11:22:37;21.52;67.20
71098;SHT35;58754;47.622;-2.986;2023-05-01T11:25:17;21.52;67.23
71098;SHT35;58754;47.622;-2.986;2023-05-01T11:27:54;21.55;67.29
71098;SHT35;58754;47.622;-2.986;2023-05-01T11:30:21;21.55;67.24
71098;SHT35;58754;47.622;-2.986;2023-05-01T11:32:48;21.56;67.16
71098;SHT35;58754;47.622;-2.986;2023-05-01T11:35:24;21.58;67.13
71098;SHT35;58754;47.622;-2.986;2023-05-01T11:37:53;21.58;67.01
71098;SHT35;58754;47.622;-2.986;2023-05-01T11:40:30;21.59;66.96
71098;SHT35;58754;47.622;-2.986;2023-05-01T11:43:01;21.60;66.87
71098;SHT35;58754;47.622;-2.986;2023-05-01T11:45:27;21.62;66.77
71098;SHT35;58754;47.622;-2.986;2023-05-01T11:47:53;21.63;66.68
71098;SHT35;58754;47.622;-2.986;2023-05-01T11:50:19;21.65;66.59
71098;SHT35;58754;47.622;-2.986;2023-05-01T11:52:47;21.65;66.53
71098;SHT35;58754;47.622;-2.986;2023-05-01T11:55:19;21.63;66.60
71098;SHT35;58754;47.622;-2.986;2023-05-01T11:57:52;21.66;66.58
71098;SHT35;58754;47.622;-2.986;2023-05-01T12:00:39;21.62;66.47
71098;SHT35;58754;47.622;-2.986;2023-05-01T12:03:12;21.65;66.41
71098;SHT35;58754;47.622;-2.986;2023-05-01T12:05:42;21.65;66.45
71098;SHT35;58754;47.622;-2.986;2023-05-01T12:08:14;21.66;66.33
71098;SHT35;58754;47.622;-2.986;2023-05-01T12:10:43;21.63;66.23
71098;SHT35;58754;47.622;-2.986;2023-05-01T12:13:11;21.63;66.25
71098;SHT35;58754;47.622;-2.986;2023-05-01T12:15:41;21.65;66.02
71098;SHT35;58754;47.622;-2.986;2023-05-01T12:18:07;21.62;65.78
71098;SHT35;58754;47.622;-2.986;2023-05-01T12:20:38;21.63;65.71
71098;SHT35;58754;47.622;-2.986;2023-05-01T12:23:05;21.62;65.43
71098;SHT35;58754;47.622;-2.986;2023-05-01T12:25:35;21.63;65.38
71098;SHT35;58754;47.622;-2.986;2023-05-01T12:28:22;21.62;65.19
71098;SHT35;58754;47.622;-2.986;2023-05-01T12:30:48;21.62;65.07
71098;SHT35;58754;47.622;-2.986;2023-05-01T12:33:18;21.63;64.87
71098;SHT35;58754;47.622;-2.986;2023-05-01T12:35:46;21.63;64.70
71098;SHT35;58754;47.622;-2.986;2023-05-01T12:38:17;21.67;64.10
71098;SHT35;58754;47.622;-2.986;2023-05-01T12:40:58;21.63;63.09
71098;SHT35;58754;47.622;-2.986;2023-05-01T12:43:35;21.62;62.33
71098;SHT35;58754;47.622;-2.986;2023-05-01T12:46:03;21.58;62.17
71098;SHT35;58754;47.622;-2.986;2023-05-01T12:48:30;21.59;62.28
71098;SHT35;58754;47.622;-2.986;2023-05-01T12:50:57;21.58;62.31
71098;SHT35;58754;47.622;-2.986;2023-05-01T12:53:25;21.60;61.88
71098;SHT35;58754;47.622;-2.986;2023-05-01T12:55:52;21.58;61.10
71098;SHT35;58754;47.622;-2.986;2023-05-01T12:58:18;21.58;61.03
71098;SHT35;58754;47.622;-2.986;2023-05-01T13:00:52;21.55;61.85
71098;SHT35;58754;47.622;-2.986;2023-05-01T13:03:25;21.58;60.90
71098;SHT35;58754;47.622;-2.986;2023-05-01T13:05:52;21.56;60.40
71098;SHT35;58754;47.622;-2.986;2023-05-01T13:08:25;21.56;61.01
71098;SHT35;58754;47.622;-2.986;2023-05-01T13:10:56;21.55;61.31
71098;SHT35;58754;47.622;-2.986;2023-05-01T13:13:27;21.53;61.39
71098;SHT35;58754;47.622;-2.986;2023-05-01T13:15:53;21.56;61.36
71098;SHT35;58754;47.622;-2.986;2023-05-01T13:18:27;21.53;61.04
71098;SHT35;58754;47.622;-2.986;2023-05-01T13:20:53;21.60;61.14
71098;SHT35;58754;47.622;-2.986;2023-05-01T13:23:18;21.58;61.17
71098;SHT35;58754;47.622;-2.986;2023-05-01T13:25:44;21.60;61.28
71098;SHT35;58754;47.622;-2.986;2023-05-01T13:28:16;21.58;61.66
71098;SHT35;58754;47.622;-2.986;2023-05-01T13:30:43;21.59;61.58
71098;SHT35;58754;47.622;-2.986;2023-05-01T13:33:09;21.59;61.59
71098;SHT35;58754;47.622;-2.986;2023-05-01T13:35:35;21.59;61.53
71098;SHT35;58754;47.622;-2.986;2023-05-01T13:38:04;21.62;61.63
71098;SHT35;58754;47.622;-2.986;2023-05-01T13:40:33;21.62;61.67
71098;SHT35;58754;47.622;-2.986;2023-05-01T13:42:59;21.62;61.66
71098;SHT35;58754;47.622;-2.986;2023-05-01T13:45:25;21.60;61.67
71098;SHT35;58754;47.622;-2.986;2023-05-01T13:47:50;21.63;61.85
71098;SHT35;58754;47.622;-2.986;2023-05-01T13:50:16;21.65;61.97
71098;SHT35;58754;47.622;-2.986;2023-05-01T13:52:43;21.65;61.95
71098;SHT35;58754;47.622;-2.986;2023-05-01T13:55:10;21.65;61.97
71098;SHT35;58754;47.622;-2.986;2023-05-01T13:57:37;21.63;62.00
71098;SHT35;58754;47.622;-2.986;2023-05-01T14:00:06;21.69;61.98
71098;SHT35;58754;47.622;-2.986;2023-05-01T14:02:36;21.69;62.00
71098;SHT35;58754;47.622;-2.986;2023-05-01T14:05:07;21.65;61.99
71098;SHT35;58754;47.622;-2.986;2023-05-01T14:08:04;21.66;62.11
71098;SHT35;58754;47.622;-2.986;2023-05-01T14:10:30;21.66;62.00
71098;SHT35;58754;47.622;-2.986;2023-05-01T14:12:57;21.66;62.04
71098;SHT35;58754;47.622;-2.986;2023-05-01T14:15:23;21.67;62.02
71098;SHT35;58754;47.622;-2.986;2023-05-01T14:17:49;21.63;62.10
71098;SHT35;58754;47.622;-2.986;2023-05-01T14:20:15;21.67;62.03
71098;SHT35;58754;47.622;-2.986;2023-05-01T14:22:46;21.65;62.15
71098;SHT35;58754;47.622;-2.986;2023-05-01T14:25:29;21.69;62.09
71098;SHT35;58754;47.622;-2.986;2023-05-01T14:27:57;21.67;62.05
71098;SHT35;58754;47.622;-2.986;2023-05-01T14:30:32;21.66;62.16
71098;SHT35;58754;47.622;-2.986;2023-05-01T14:33:02;21.66;62.13
71098;SHT35;58754;47.622;-2.986;2023-05-01T14:35:28;21.67;62.17
71098;SHT35;58754;47.622;-2.986;2023-05-01T14:37:54;21.69;62.17
71098;SHT35;58754;47.622;-2.986;2023-05-01T14:40:26;21.69;62.20
71098;SHT35;58754;47.622;-2.986;2023-05-01T14:42:53;21.67;62.16
71098;SHT35;58754;47.622;-2.986;2023-05-01T14:45:20;21.69;62.28
71098;SHT35;58754;47.622;-2.986;2023-05-01T14:47:47;21.69;62.23
71098;SHT35;58754;47.622;-2.986;2023-05-01T14:50:20;21.69;62.25
71098;SHT35;58754;47.622;-2.986;2023-05-01T14:52:55;21.67;62.23
71098;SHT35;58754;47.622;-2.986;2023-05-01T14:55:25;21.69;62.23
71098;SHT35;58754;47.622;-2.986;2023-05-01T14:57:52;21.67;62.24
71098;SHT35;58754;47.622;-2.986;2023-05-01T15:00:18;21.72;62.28
71098;SHT35;58754;47.622;-2.986;2023-05-01T15:02:44;21.67;62.26
71098;SHT35;58754;47.622;-2.986;2023-05-01T15:05:10;21.70;62.29
71098;SHT35;58754;47.622;-2.986;2023-05-01T15:07:36;21.67;62.35
71098;SHT35;58754;47.622;-2.986;2023-05-01T15:10:02;21.70;62.31
71098;SHT35;58754;47.622;-2.986;2023-05-01T15:12:28;21.69;62.35
71098;SHT35;58754;47.622;-2.986;2023-05-01T15:14:54;21.66;62.37
71098;SHT35;58754;47.622;-2.986;2023-05-01T15:17:20;21.72;62.39
71098;SHT35;58754;47.622;-2.986;2023-05-01T15:19:45;21.69;62.44
71098;SHT35;58754;47.622;-2.986;2023-05-01T15:22:11;21.70;62.45
71098;SHT35;58754;47.622;-2.986;2023-05-01T15:24:37;21.69;62.41
71098;SHT35;58754;47.622;-2.986;2023-05-01T15:27:04;21.69;62.44
71098;SHT35;58754;47.622;-2.986;2023-05-01T15:29:30;21.70;62.47
71098;SHT35;58754;47.622;-2.986;2023-05-01T15:31:56;21.73;62.51
71098;SHT35;58754;47.622;-2.986;2023-05-01T15:34:22;21.72;62.52
71098;SHT35;58754;47.622;-2.986;2023-05-01T15:36:49;21.69;62.51